Time;durP1;ratioP1;P1;durP2;ratioP2;P2;SDS_P1;SDS_P2;PMS_P1;PMS_P2;Temp;Humidity;BMP_temperature;BMP_pressure;BME280_temperature;BME280_humidity;BME280_pressure;Samples;Min_cycle;Max_cycle;Signal;HPM_P1;HPM_P2
2021/03/06 00:00:15;;;;;;;7.13;4.15;;;1.30;1.00;;;;;;5018990;28;20022;-73
2021/03/06 00:02:41;;;;;;;5.28;4.50;;;1.20;1.00;;;;;;5018814;28;20060;-70
2021/03/06 00:05:07;;;;;;;5.85;4.57;;;1.20;1.00;;;;;;5019135;28;20026;-72
2021/03/06 00:07:33;;;;;;;4.53;3.58;;;1.10;99.90;;;;;;5016757;28;20030;-73
2021/03/06 00:09:59;;;;;;;5.32;4.10;;;1.10;99.90;;;;;;5017355;28;20101;-72
2021/03/06 00:12:24;;;;;;;4.53;4.10;;;1.10;99.90;;;;;;5017896;28;20116;-72
2021/03/06 00:14:50;;;;;;;5.32;4.05;;;1.10;1.00;;;;;;5016970;28;20033;-73
2021/03/06 00:17:16;;;;;;;5.57;4.32;;;1.10;99.90;;;;;;5016977;28;20030;-72
2021/03/06 00:19:41;;;;;;;4.78;3.88;;;1.10;99.90;;;;;;5016800;28;20498;-73
2021/03/06 00:22:07;;;;;;;5.68;3.88;;;1.10;99.90;;;;;;5016386;28;20072;-72
2021/03/06 00:24:34;;;;;;;6.50;3.85;;;1.00;99.90;;;;;;5016540;28;20025;-73
2021/03/06 00:26:59;;;;;;;6.05;3.85;;;1.00;99.90;;;;;;5016461;28;20029;-71
2021/03/06 00:29:25;;;;;;;6.45;3.80;;;0.90;1.00;;;;;;5016282;28;20026;-72
2021/03/06 00:31:51;;;;;;;5.93;4.43;;;0.90;99.90;;;;;;5014973;28;20393;-72
2021/03/06 00:34:16;;;;;;;5.15;4.55;;;0.90;99.90;;;;;;5016213;28;20034;-73
2021/03/06 00:36:42;;;;;;;5.28;3.85;;;0.90;99.90;;;;;;5016083;28;20467;-73
2021/03/06 00:39:08;;;;;;;4.47;3.97;;;0.90;99.90;;;;;;5016323;28;20068;-72
2021/03/06 00:41:34;;;;;;;5.07;4.43;;;0.80;1.00;;;;;;5018152;28;20060;-71
2021/03/06 00:44:00;;;;;;;6.00;4.40;;;0.60;1.00;;;;;;5018046;28;20030;-72
2021/03/06 00:46:26;;;;;;;5.88;4.05;;;0.40;1.00;;;;;;5017353;28;20018;-72
2021/03/06 00:48:52;;;;;;;4.95;4.20;;;0.50;1.00;;;;;;5016419;28;20052;-71
2021/03/06 00:51:18;;;;;;;4.88;3.80;;;0.70;1.00;;;;;;5017063;28;20029;-71
2021/03/06 00:53:44;;;;;;;4.53;4.03;;;0.80;1.00;;;;;;5017184;28;20565;-72
2021/03/06 00:56:10;;;;;;;4.60;4.10;;;0.80;99.90;;;;;;5018738;28;20025;-72
2021/03/06 00:58:35;;;;;;;5.03;3.85;;;0.80;1.00;;;;;;5017991;28;20030;-74
2021/03/06 01:01:03;;;;;;;5.40;4.00;;;0.80;99.90;;;;;;5015495;28;20064;-72
2021/03/06 01:03:28;;;;;;;9.40;4.32;;;0.90;99.90;;;;;;5015556;28;20026;-72
2021/03/06 01:05:54;;;;;;;5.40;3.65;;;0.90;99.90;;;;;;5015852;28;20030;-72
2021/03/06 01:08:20;;;;;;;5.60;4.45;;;0.90;99.90;;;;;;5015694;28;20061;-72
2021/03/06 01:10:46;;;;;;;6.05;4.35;;;0.80;1.00;;;;;;5015542;28;20386;-72
2021/03/06 01:13:12;;;;;;;7.80;4.53;;;0.80;1.00;;;;;;5016318;28;20030;-72
2021/03/06 01:15:38;;;;;;;5.15;4.05;;;0.80;1.00;;;;;;5015700;28;20033;-71
2021/03/06 01:18:05;;;;;;;6.53;3.90;;;0.70;1.00;;;;;;5015647;28;20030;-72
2021/03/06 01:20:31;;;;;;;9.82;4.88;;;0.70;1.00;;;;;;5015116;28;20025;-72
2021/03/06 01:22:57;;;;;;;5.80;4.30;;;0.70;1.00;;;;;;5018857;28;20493;-72
2021/03/06 01:25:23;;;;;;;6.88;4.32;;;0.60;1.00;;;;;;5026314;28;20053;-71
2021/03/06 01:27:49;;;;;;;6.50;4.43;;;0.50;1.00;;;;;;5025442;28;20034;-72
2021/03/06 01:30:16;;;;;;;4.88;4.30;;;0.50;1.00;;;;;;5018991;28;20096;-72
2021/03/06 01:32:41;;;;;;;5.93;5.25;;;0.50;1.00;;;;;;5018453;28;20029;-73
2021/03/06 01:35:09;;;;;;;5.97;4.15;;;0.40;1.00;;;;;;5016150;28;20026;-72
2021/03/06 01:37:36;;;;;;;4.97;4.20;;;0.40;1.00;;;;;;5016198;28;20477;-72
2021/03/06 01:40:08;;;;;;;6.85;5.20;;;0.20;1.00;;;;;;5016098;28;20030;-72
2021/03/06 01:42:34;;;;;;;6.18;4.60;;;0.10;1.00;;;;;;5016944;28;20033;-72
2021/03/06 01:44:59;;;;;;;5.88;5.00;;;-0.10;24.40;;;;;;5016519;28;20393;-72
2021/03/06 01:47:25;;;;;;;6.72;4.45;;;-0.10;50.70;;;;;;5016678;28;20406;-72
2021/03/06 01:49:50;;;;;;;5.90;4.57;;;-0.10;16.90;;;;;;5015894;28;20454;-71
2021/03/06 01:52:16;;;;;;;5.25;4.43;;;-0.10;27.60;;;;;;5015396;28;20482;-72
2021/03/06 01:54:43;;;;;;;5.75;4.57;;;-0.10;20.70;;;;;;5030711;28;20036;-72
2021/03/06 01:57:09;;;;;;;6.40;4.28;;;-0.10;11.60;;;;;;5032964;28;20018;-72
2021/03/06 01:59:35;;;;;;;5.88;4.32;;;-0.10;32.50;;;;;;5032921;28;20030;-71
2021/03/06 02:02:01;;;;;;;6.95;5.32;;;-0.30;44.70;;;;;;5025669;28;20036;-71
2021/03/06 02:04:27;;;;;;;6.50;4.72;;;-0.40;88.50;;;;;;5031534;28;20037;-72
2021/03/06 02:06:53;;;;;;;7.38;5.00;;;-0.30;62.90;;;;;;5027167;28;20085;-72
2021/03/06 02:09:19;;;;;;;5.88;5.07;;;-0.30;63.50;;;;;;5032765;28;20033;-72
2021/03/06 02:12:01;;;;;;;6.40;4.78;;;-0.30;53.10;;;;;;5023684;28;20034;-72
2021/03/06 02:14:51;;;;;;;6.63;4.95;;;-0.30;60.00;;;;;;5029117;28;20104;-71
2021/03/06 02:17:28;;;;;;;5.23;4.50;;;-0.20;24.70;;;;;;5030389;28;20022;-71
2021/03/06 02:20:25;;;;;;;5.57;4.57;;;-0.20;8.60;;;;;;5030744;28;20320;-72
2021/03/06 02:23:28;;;;;;;7.57;4.55;;;-0.20;7.50;;;;;;5018625;28;20060;-71
2021/03/06 02:26:17;;;;;;;7.30;6.25;;;-0.20;13.50;;;;;;5015645;28;20026;-72
2021/03/06 02:29:03;;;;;;;6.35;4.85;;;-0.10;1.00;;;;;;5014941;28;20061;-72
2021/03/06 02:31:31;;;;;;;5.47;4.18;;;0.00;1.00;;;;;;5015569;28;20053;-71
2021/03/06 02:34:04;;;;;;;8.05;5.32;;;0.00;1.00;;;;;;5014853;28;20026;-72
2021/03/06 02:36:35;;;;;;;6.00;5.00;;;0.00;1.00;;;;;;5015289;28;20045;-72
2021/03/06 02:39:04;;;;;;;5.88;4.25;;;0.00;1.00;;;;;;5014323;28;20060;-73
2021/03/06 02:41:32;;;;;;;5.72;4.75;;;-0.10;1.00;;;;;;5014382;28;20402;-72
2021/03/06 02:44:00;;;;;;;4.90;4.35;;;-0.10;1.00;;;;;;5012572;28;20049;-71
2021/03/06 02:46:26;;;;;;;8.65;4.35;;;0.00;1.00;;;;;;5015250;28;20426;-71
2021/03/06 02:48:54;;;;;;;6.85;4.63;;;0.00;1.00;;;;;;5015197;28;20084;-72
2021/03/06 02:51:21;;;;;;;7.70;4.78;;;-0.10;1.00;;;;;;5014692;28;20029;-71
2021/03/06 02:53:48;;;;;;;6.22;4.43;;;-0.20;1.00;;;;;;5014307;28;20026;-72
2021/03/06 02:56:15;;;;;;;5.97;4.45;;;-0.30;1.00;;;;;;5014526;28;20034;-72
2021/03/06 02:58:56;;;;;;;4.72;4.13;;;-0.30;1.00;;;;;;5014577;28;20490;-72
2021/03/06 03:01:49;;;;;;;5.15;4.30;;;-0.30;1.00;;;;;;5015045;28;20105;-72
2021/03/06 03:04:22;;;;;;;5.50;4.43;;;-0.40;1.00;;;;;;5015742;28;20026;-73
2021/03/06 03:06:50;;;;;;;12.63;5.93;;;-0.60;1.00;;;;;;5014461;28;20029;-72
2021/03/06 03:09:21;;;;;;;4.65;3.95;;;-0.70;9.20;;;;;;5014210;28;20026;-72
2021/03/06 03:12:00;;;;;;;5.88;4.05;;;-0.70;6.40;;;;;;5015330;28;20026;-72
2021/03/06 03:14:48;;;;;;;6.50;4.25;;;-0.50;1.00;;;;;;5012780;28;20025;-71
2021/03/06 03:17:25;;;;;;;4.90;4.20;;;-0.40;1.00;;;;;;5014594;28;20026;-72
2021/03/06 03:20:22;;;;;;;4.72;4.07;;;-0.20;1.00;;;;;;5014149;28;20026;-72
2021/03/06 03:22:53;;;;;;;4.85;4.20;;;-0.20;1.00;;;;;;5013588;28;20087;-72
2021/03/06 03:25:20;;;;;;;4.78;3.90;;;-0.30;1.00;;;;;;5016182;28;20347;-72
2021/03/06 03:27:47;;;;;;;5.88;4.40;;;-0.20;1.00;;;;;;5019189;28;20084;-71
2021/03/06 03:30:16;;;;;;;6.75;4.07;;;-0.30;1.00;;;;;;5019729;28;20033;-72
2021/03/06 03:32:44;;;;;;;4.95;4.55;;;-0.30;1.00;;;;;;5020611;28;20022;-71
2021/03/06 03:35:13;;;;;;;4.10;3.70;;;-0.30;1.00;;;;;;5021604;28;20041;-72
2021/03/06 03:37:41;;;;;;;5.68;4.35;;;-0.30;1.00;;;;;;5021173;28;20026;-73
2021/03/06 03:40:10;;;;;;;5.95;4.55;;;-0.40;1.00;;;;;;5021546;28;20022;-72
2021/03/06 03:42:36;;;;;;;5.78;5.10;;;-0.50;1.00;;;;;;5020673;28;20018;-71
2021/03/06 03:45:06;;;;;;;6.40;4.15;;;-0.50;1.00;;;;;;5020055;28;20551;-72
2021/03/06 03:47:32;;;;;;;5.70;4.45;;;-0.50;1.00;;;;;;5020042;28;20038;-71
2021/03/06 03:49:58;;;;;;;7.05;5.10;;;-0.40;1.00;;;;;;5020721;28;20026;-72
2021/03/06 03:52:24;;;;;;;5.47;4.28;;;-0.50;1.00;;;;;;5021165;28;20030;-71
2021/03/06 03:54:50;;;;;;;5.93;4.55;;;-0.50;1.00;;;;;;5021411;28;20440;-73
2021/03/06 03:57:16;;;;;;;6.30;4.15;;;-0.50;1.00;;;;;;5020144;28;20057;-72
2021/03/06 03:59:41;;;;;;;4.88;4.32;;;-0.50;1.00;;;;;;5020784;28;20389;-72
2021/03/06 04:02:07;;;;;;;5.50;5.00;;;-0.70;1.00;;;;;;5019492;28;20037;-73
2021/03/06 04:04:33;;;;;;;5.18;4.68;;;-0.70;1.00;;;;;;5014150;28;20025;-71
2021/03/06 04:07:00;;;;;;;5.65;4.20;;;-0.60;1.00;;;;;;5012190;28;20364;-72
2021/03/06 04:09:26;;;;;;;6.65;4.63;;;-0.60;1.00;;;;;;5012137;28;20017;-71
2021/03/06 04:11:52;;;;;;;6.05;4.63;;;-0.60;1.00;;;;;;5012591;28;20029;-72
2021/03/06 04:14:18;;;;;;;5.28;4.55;;;-0.60;1.00;;;;;;5011998;28;20378;-72
2021/03/06 04:16:44;;;;;;;7.28;5.55;;;-0.70;1.00;;;;;;5010619;28;20022;-72
2021/03/06 04:19:10;;;;;;;8.35;4.78;;;-0.80;1.00;;;;;;5010914;28;20453;-72
2021/03/06 04:21:36;;;;;;;5.38;4.80;;;-0.80;1.00;;;;;;5012013;28;20097;-73
2021/03/06 04:24:02;;;;;;;7.10;4.53;;;-1.10;30.90;;;;;;5010593;28;20521;-71
2021/03/06 04:26:27;;;;;;;5.90;4.72;;;-1.10;43.70;;;;;;5035896;23;20064;-69
2021/03/06 04:28:53;;;;;;;4.78;4.38;;;-1.10;59.90;;;;;;5040097;28;20036;-68
2021/03/06 04:31:18;;;;;;;7.22;5.18;;;-1.20;47.60;;;;;;5039702;28;20098;-69
2021/03/06 04:33:44;;;;;;;5.72;5.13;;;-1.30;86.30;;;;;;5038216;28;20053;-69
2021/03/06 04:36:11;;;;;;;6.72;5.40;;;-1.30;89.60;;;;;;5024676;28;20105;-68
2021/03/06 04:38:36;;;;;;;5.15;4.53;;;-1.40;98.20;;;;;;5017927;28;20474;-69
2021/03/06 04:41:02;;;;;;;5.72;5.10;;;-1.40;99.90;;;;;;5017150;28;20036;-68
2021/03/06 04:43:28;;;;;;;6.57;4.75;;;-1.40;96.80;;;;;;5017090;28;20018;-69
2021/03/06 04:45:53;;;;;;;5.60;4.95;;;-1.50;97.50;;;;;;5018083;28;20077;-69
2021/03/06 04:48:19;;;;;;;5.28;4.65;;;-1.40;94.30;;;;;;5017346;28;20037;-69
2021/03/06 04:50:45;;;;;;;6.68;4.78;;;-1.40;79.50;;;;;;5016617;28;20076;-68
2021/03/06 04:53:11;;;;;;;7.30;5.30;;;-1.40;49.70;;;;;;5016825;28;20053;-68
2021/03/06 04:55:36;;;;;;;6.68;5.32;;;-1.30;29.50;;;;;;5015282;28;20030;-69
2021/03/06 04:58:02;;;;;;;4.15;3.85;;;-1.20;14.30;;;;;;5016192;28;20061;-68
2021/03/06 05:00:28;;;;;;;5.82;4.68;;;-1.10;1.00;;;;;;5016356;28;20579;-69
2021/03/06 05:02:55;;;;;;;7.72;4.60;;;-1.00;1.00;;;;;;5016353;28;20050;-69
2021/03/06 05:05:20;;;;;;;5.18;4.47;;;-1.00;1.00;;;;;;5014228;28;20049;-69
2021/03/06 05:07:46;;;;;;;5.70;4.15;;;-1.10;1.00;;;;;;5015475;28;20076;-69
2021/03/06 05:10:12;;;;;;;7.15;5.32;;;-1.00;1.00;;;;;;5015177;28;20105;-69
2021/03/06 05:12:37;;;;;;;6.18;4.78;;;-1.00;1.00;;;;;;5015427;28;20026;-69
2021/03/06 05:15:05;;;;;;;6.28;4.93;;;-1.00;1.00;;;;;;5015160;28;20028;-69
2021/03/06 05:17:31;;;;;;;5.28;4.47;;;-1.00;1.00;;;;;;5015123;28;20054;-69
2021/03/06 05:19:56;;;;;;;10.95;4.90;;;-1.00;1.00;;;;;;5015184;28;20073;-68
2021/03/06 05:22:22;;;;;;;8.60;5.07;;;-0.90;1.00;;;;;;5015128;28;20508;-68
2021/03/06 05:24:48;;;;;;;4.60;3.85;;;-1.00;1.00;;;;;;5015038;28;20018;-68
2021/03/06 05:27:14;;;;;;;5.32;4.82;;;-1.00;1.00;;;;;;5014405;28;20068;-70
2021/03/06 05:29:40;;;;;;;4.35;3.90;;;-1.00;1.00;;;;;;5014774;28;20053;-69
2021/03/06 05:32:06;;;;;;;4.68;4.28;;;-1.10;1.00;;;;;;5015397;28;20070;-69
2021/03/06 05:34:36;;;;;;;6.43;4.82;;;-1.00;1.00;;;;;;5014594;28;20022;-69
2021/03/06 05:37:02;;;;;;;5.25;4.43;;;-1.10;1.00;;;;;;5014437;28;20478;-69
2021/03/06 05:39:28;;;;;;;6.57;5.47;;;-1.10;1.00;;;;;;5012919;28;20037;-70
2021/03/06 05:41:55;;;;;;;5.10;4.38;;;-1.00;1.00;;;;;;5014951;28;20362;-69
2021/03/06 05:44:21;;;;;;;4.68;4.28;;;-1.00;1.00;;;;;;5014944;28;20026;-69
2021/03/06 05:46:46;;;;;;;5.63;4.80;;;-1.00;1.00;;;;;;5016062;28;20022;-70
2021/03/06 05:49:13;;;;;;;5.80;4.75;;;-1.10;1.00;;;;;;5015368;28;20490;-69
2021/03/06 05:51:41;;;;;;;9.02;4.90;;;-1.20;1.00;;;;;;5014795;28;20022;-69
2021/03/06 05:54:12;;;;;;;5.80;4.85;;;-1.40;1.00;;;;;;5014727;28;20029;-69
2021/03/06 05:56:44;;;;;;;7.20;4.50;;;-1.50;3.10;;;;;;5015150;28;20054;-69
2021/03/06 05:59:11;;;;;;;5.28;4.78;;;-1.50;12.20;;;;;;5015092;28;20084;-68
2021/03/06 06:01:38;;;;;;;6.45;4.97;;;-1.50;1.00;;;;;;5015241;28;20029;-69
2021/03/06 06:04:05;;;;;;;5.95;5.40;;;-1.40;1.00;;;;;;5015736;28;20030;-68
2021/03/06 06:06:32;;;;;;;7.13;4.93;;;-1.30;21.30;;;;;;5015790;28;20390;-70
2021/03/06 06:08:59;;;;;;;7.88;5.53;;;-1.40;17.20;;;;;;5015577;28;20033;-69
2021/03/06 06:11:27;;;;;;;5.63;4.97;;;-1.50;28.80;;;;;;5019722;28;20021;-68
2021/03/06 06:13:57;;;;;;;6.50;4.57;;;-1.40;98.00;;;;;;5030943;28;20056;-70
2021/03/06 06:16:23;;;;;;;6.18;4.88;;;-1.30;1.00;;;;;;5035816;28;20052;-69
2021/03/06 06:18:50;;;;;;;5.25;4.75;;;-1.20;1.00;;;;;;5036830;28;20053;-70
2021/03/06 06:21:44;;;;;;;6.57;5.85;;;-1.00;1.00;;;;;;5037371;28;20070;-70
2021/03/06 06:24:18;;;;;;;7.75;5.25;;;-0.80;1.00;;;;;;5037444;28;20014;-70
2021/03/06 06:26:52;;;;;;;5.38;4.68;;;-0.80;1.00;;;;;;5027471;28;20436;-69
2021/03/06 06:29:28;;;;;;;5.45;4.85;;;-0.80;1.00;;;;;;5026408;28;20006;-70
2021/03/06 06:31:54;;;;;;;5.30;4.75;;;-0.70;1.00;;;;;;5031318;28;20018;-69
2021/03/06 06:34:19;;;;;;;7.57;4.70;;;-0.60;99.90;;;;;;5029327;28;20053;-70
2021/03/06 06:36:45;;;;;;;5.35;4.85;;;-0.70;1.00;;;;;;5029552;28;20018;-69
2021/03/06 06:39:11;;;;;;;5.53;4.25;;;-0.70;1.00;;;;;;5032518;28;20036;-68
2021/03/06 06:41:48;;;;;;;8.90;4.82;;;-0.70;99.90;;;;;;5033986;28;20072;-69
2021/03/06 06:44:14;;;;;;;8.02;4.57;;;-0.50;99.90;;;;;;5033260;28;20030;-69
2021/03/06 06:46:40;;;;;;;7.18;5.10;;;-0.50;99.90;;;;;;5032444;28;20075;-70
2021/03/06 06:49:06;;;;;;;5.35;4.88;;;-0.40;99.90;;;;;;5035810;28;20037;-70
2021/03/06 06:51:31;;;;;;;5.45;4.63;;;-0.30;99.90;;;;;;5034789;28;20034;-70
2021/03/06 06:54:12;;;;;;;5.22;4.47;;;-0.30;99.90;;;;;;5035375;28;20069;-69
2021/03/06 06:56:39;;;;;;;6.97;4.97;;;-0.20;99.90;;;;;;5023004;28;20056;-70
2021/03/06 06:59:09;;;;;;;4.75;4.30;;;-0.20;99.90;;;;;;5019374;28;20026;-69
2021/03/06 07:01:36;;;;;;;5.38;4.88;;;-0.10;99.90;;;;;;5031129;28;20026;-69
2021/03/06 07:04:03;;;;;;;8.55;5.38;;;-0.10;99.90;;;;;;5031604;28;20030;-69
2021/03/06 07:06:29;;;;;;;7.43;4.80;;;0.00;99.90;;;;;;5031214;28;20002;-69
2021/03/06 07:09:15;;;;;;;5.60;5.00;;;0.00;99.90;;;;;;5031873;28;20022;-69
2021/03/06 07:11:42;;;;;;;6.45;5.13;;;0.10;99.90;;;;;;5028378;28;20049;-70
2021/03/06 07:14:08;;;;;;;5.15;4.65;;;0.20;99.90;;;;;;5027691;28;20030;-69
2021/03/06 07:16:59;;;;;;;5.63;4.93;;;0.20;99.90;;;;;;5027748;28;20026;-69
2021/03/06 07:19:26;;;;;;;5.85;4.97;;;0.30;99.90;;;;;;5016674;28;20489;-69
2021/03/06 07:21:52;;;;;;;6.32;4.50;;;0.20;99.90;;;;;;5015520;28;20759;-69
2021/03/06 07:24:18;;;;;;;11.05;4.82;;;0.30;99.90;;;;;;5016089;28;20030;-68
2021/03/06 07:26:44;;;;;;;4.57;4.18;;;0.40;99.90;;;;;;5016669;28;20442;-69
2021/03/06 07:29:10;;;;;;;6.80;5.03;;;0.40;99.90;;;;;;5015633;28;20101;-70
2021/03/06 07:31:38;;;;;;;6.43;5.65;;;0.50;99.90;;;;;;5015951;28;20080;-69
2021/03/06 07:34:08;;;;;;;6.68;4.13;;;0.50;99.90;;;;;;5015429;28;20509;-69
2021/03/06 07:36:36;;;;;;;5.53;5.00;;;0.60;14.50;;;;;;5017270;28;20029;-69
2021/03/06 07:39:05;;;;;;;6.53;5.85;;;0.70;1.00;;;;;;5015788;28;20037;-70
2021/03/06 07:41:36;;;;;;;6.07;4.43;;;0.80;1.00;;;;;;5015724;28;20022;-70
2021/03/06 07:44:03;;;;;;;4.93;4.53;;;0.90;99.90;;;;;;5015987;28;20453;-69
2021/03/06 07:46:29;;;;;;;6.95;5.13;;;1.00;99.90;;;;;;5015069;28;20041;-70
2021/03/06 07:48:59;;;;;;;8.32;5.93;;;1.10;99.90;;;;;;5014906;28;20026;-69
2021/03/06 07:51:26;;;;;;;8.65;4.63;;;1.20;99.90;;;;;;5015479;28;20397;-70
2021/03/06 07:53:52;;;;;;;6.78;5.10;;;1.30;14.00;;;;;;5013046;28;20034;-69
2021/03/06 07:56:18;;;;;;;5.10;4.70;;;1.40;96.90;;;;;;5016493;28;20029;-70
2021/03/06 07:58:48;;;;;;;8.30;5.50;;;1.40;1.00;;;;;;5015176;28;20030;-70
2021/03/06 08:01:28;;;;;;;4.35;3.80;;;1.50;1.00;;;;;;5019922;28;20026;-70
2021/03/06 08:03:54;;;;;;;4.80;4.07;;;1.50;1.00;;;;;;5018139;28;20022;-69
2021/03/06 08:06:30;;;;;;;5.30;4.10;;;1.60;99.90;;;;;;5018986;28;20026;-69
2021/03/06 08:09:07;;;;;;;4.70;4.03;;;1.70;52.40;;;;;;5017886;28;20026;-70
2021/03/06 08:11:33;;;;;;;6.90;4.20;;;1.70;99.90;;;;;;5017938;28;20106;-69
2021/03/06 08:14:01;;;;;;;8.77;4.90;;;1.80;90.00;;;;;;5019253;28;20105;-70
2021/03/06 08:16:27;;;;;;;4.95;4.45;;;1.90;33.20;;;;;;5017136;28;20022;-70
2021/03/06 08:19:01;;;;;;;5.45;4.35;;;2.00;1.00;;;;;;5017073;28;20033;-70
2021/03/06 08:21:41;;;;;;;4.68;4.28;;;2.10;99.90;;;;;;5017406;28;20022;-69
2021/03/06 08:24:18;;;;;;;6.40;4.22;;;2.10;89.80;;;;;;5017100;28;20385;-69
2021/03/06 08:26:52;;;;;;;8.27;3.97;;;2.10;99.90;;;;;;5017407;28;20018;-68
2021/03/06 08:29:21;;;;;;;7.10;4.60;;;2.10;99.90;;;;;;5016509;28;20026;-70
2021/03/06 08:32:08;;;;;;;7.53;5.00;;;2.20;99.90;;;;;;5016747;28;20018;-70
2021/03/06 08:34:45;;;;;;;7.43;6.32;;;2.40;1.00;;;;;;5017789;28;20113;-69
2021/03/06 08:37:16;;;;;;;5.47;4.70;;;2.50;1.00;;;;;;5017451;28;20060;-69
2021/03/06 08:40:03;;;;;;;8.55;4.32;;;2.50;1.00;;;;;;5018198;28;20025;-70
2021/03/06 08:42:33;;;;;;;6.53;4.65;;;2.60;49.90;;;;;;5018798;28;20026;-70
2021/03/06 08:45:01;;;;;;;5.50;4.30;;;2.70;28.60;;;;;;5018629;28;20105;-69
2021/03/06 08:47:33;;;;;;;4.63;3.70;;;2.80;99.90;;;;;;5017679;28;20034;-69
2021/03/06 08:50:00;;;;;;;5.75;3.78;;;2.80;99.90;;;;;;5016659;28;20393;-70
2021/03/06 08:52:29;;;;;;;6.47;4.82;;;2.90;99.90;;;;;;5017272;28;20434;-69
2021/03/06 08:54:56;;;;;;;5.57;4.25;;;2.90;1.00;;;;;;5019012;28;20088;-69
2021/03/06 08:57:32;;;;;;;5.25;4.30;;;2.90;1.00;;;;;;5024671;28;20064;-70
2021/03/06 08:59:59;;;;;;;5.43;4.55;;;3.00;99.90;;;;;;5024010;28;20018;-70
2021/03/06 09:02:33;;;;;;;5.18;4.20;;;3.10;99.90;;;;;;5023338;28;20393;-71
2021/03/06 09:05:09;;;;;;;4.53;4.10;;;3.10;1.00;;;;;;5020495;28;20021;-69
2021/03/06 09:07:47;;;;;;;5.05;4.10;;;3.10;99.90;;;;;;5020573;28;20052;-69
2021/03/06 09:10:18;;;;;;;6.10;4.53;;;3.30;99.90;;;;;;5019599;28;20544;-70
2021/03/06 09:12:45;;;;;;;5.43;4.13;;;3.50;99.90;;;;;;5018795;28;20030;-69
2021/03/06 09:15:13;;;;;;;7.10;4.95;;;3.60;99.90;;;;;;5017424;28;20037;-70
2021/03/06 09:17:38;;;;;;;4.05;3.75;;;3.70;99.90;;;;;;5017053;28;20385;-70
2021/03/06 09:20:07;;;;;;;6.50;4.28;;;3.80;2.90;;;;;;5016836;28;20045;-70
2021/03/06 09:22:43;;;;;;;4.95;3.90;;;3.80;1.00;;;;;;5018870;28;20026;-69
2021/03/06 09:25:09;;;;;;;4.78;3.78;;;3.90;1.00;;;;;;5018538;28;20014;-69
2021/03/06 09:27:45;;;;;;;4.43;3.78;;;4.00;1.00;;;;;;5019024;28;20049;-70
2021/03/06 09:30:31;;;;;;;3.97;3.60;;;4.10;99.90;;;;;;5018464;28;20022;-69
2021/03/06 09:32:58;;;;;;;6.40;3.80;;;4.00;99.90;;;;;;5019693;28;20022;-69
2021/03/06 09:35:24;;;;;;;7.10;3.90;;;4.10;99.90;;;;;;5019940;28;20033;-70
2021/03/06 09:38:11;;;;;;;4.35;3.95;;;4.20;99.90;;;;;;5019782;28;20027;-70
2021/03/06 09:40:45;;;;;;;6.20;5.03;;;4.30;99.90;;;;;;5016657;28;20026;-69
2021/03/06 09:43:15;;;;;;;5.35;4.38;;;4.40;1.00;;;;;;5015361;28;20041;-70
2021/03/06 09:45:41;;;;;;;5.55;4.50;;;4.40;99.90;;;;;;5016833;28;20022;-70
2021/03/06 09:48:14;;;;;;;4.32;3.90;;;4.60;63.30;;;;;;5017938;28;20071;-68
2021/03/06 09:50:42;;;;;;;5.22;4.05;;;4.70;1.00;;;;;;5018364;28;20113;-69
2021/03/06 09:53:15;;;;;;;6.13;4.05;;;4.70;1.00;;;;;;5016644;28;20022;-69
2021/03/06 09:55:42;;;;;;;5.05;3.80;;;4.80;1.00;;;;;;5016109;28;20200;-69
2021/03/06 09:58:21;;;;;;;5.75;4.30;;;4.80;99.90;;;;;;5015608;28;20109;-70
2021/03/06 10:00:48;;;;;;;4.55;4.07;;;4.90;99.90;;;;;;5017220;28;20018;-68
2021/03/06 10:03:27;;;;;;;4.70;4.20;;;5.00;99.90;;;;;;5016145;28;20057;-70
2021/03/06 10:06:05;;;;;;;4.70;3.72;;;5.00;99.90;;;;;;5015937;28;20076;-70
2021/03/06 10:08:35;;;;;;;4.85;4.32;;;4.90;99.90;;;;;;5016326;28;20093;-70
2021/03/06 10:11:01;;;;;;;5.07;3.97;;;5.00;99.90;;;;;;5016382;28;20026;-69
2021/03/06 10:13:27;;;;;;;4.75;3.22;;;5.00;99.90;;;;;;5017917;28;20079;-70
2021/03/06 10:15:54;;;;;;;4.43;3.83;;;5.20;99.90;;;;;;5015806;28;20037;-69
2021/03/06 10:18:21;;;;;;;10.00;4.18;;;5.10;99.90;;;;;;5023992;28;20076;-69
2021/03/06 10:20:48;;;;;;;5.30;4.20;;;5.10;99.90;;;;;;5018040;28;20026;-72
2021/03/06 10:23:28;;;;;;;6.55;4.32;;;5.20;99.90;;;;;;5019915;28;20490;-70
2021/03/06 10:26:14;;;;;;;4.13;3.72;;;5.30;99.90;;;;;;5017664;28;20040;-68
2021/03/06 10:28:40;;;;;;;4.78;4.28;;;5.20;11.10;;;;;;5015667;28;20041;-69
2021/03/06 10:31:05;;;;;;;4.97;4.07;;;5.30;99.90;;;;;;5016249;28;20116;-70
2021/03/06 10:33:38;;;;;;;4.20;3.80;;;5.40;70.30;;;;;;5015304;28;20025;-70
2021/03/06 10:36:16;;;;;;;4.43;4.03;;;5.50;37.90;;;;;;5014357;28;20026;-70
2021/03/06 10:38:41;;;;;;;6.90;4.13;;;5.50;1.00;;;;;;5016890;28;20033;-70
2021/03/06 10:41:18;;;;;;;3.83;3.40;;;5.60;1.00;;;;;;5015840;28;20022;-70
2021/03/06 10:43:55;;;;;;;4.30;3.88;;;5.70;1.00;;;;;;5022734;28;20028;-70
2021/03/06 10:46:25;;;;;;;4.20;3.80;;;5.70;1.00;;;;;;5026128;28;20022;-71
2021/03/06 10:48:55;;;;;;;3.95;3.47;;;5.70;1.00;;;;;;5026548;28;20481;-70
2021/03/06 10:51:22;;;;;;;4.30;3.90;;;5.70;99.90;;;;;;5023848;28;20030;-70
2021/03/06 10:54:06;;;;;;;4.18;3.58;;;5.70;99.90;;;;;;5018630;28;20516;-70
2021/03/06 10:56:31;;;;;;;4.38;3.60;;;5.70;99.90;;;;;;5016200;28;20018;-69
2021/03/06 10:58:57;;;;;;;5.30;4.32;;;5.70;99.90;;;;;;5015760;28;20104;-70
2021/03/06 11:01:24;;;;;;;5.13;4.63;;;5.80;99.90;;;;;;5015621;28;20485;-70
2021/03/06 11:03:51;;;;;;;4.30;3.90;;;6.00;99.90;;;;;;5016064;28;20022;-70
2021/03/06 11:06:18;;;;;;;5.13;4.03;;;6.10;99.90;;;;;;5016093;28;20028;-69
2021/03/06 11:08:58;;;;;;;3.88;3.10;;;6.20;99.90;;;;;;5014607;28;20466;-69
2021/03/06 11:11:25;;;;;;;6.53;4.80;;;6.30;99.90;;;;;;5024359;28;20570;-70
2021/03/06 11:13:50;;;;;;;3.38;3.03;;;6.20;99.90;;;;;;5028701;28;20030;-69
2021/03/06 11:16:16;;;;;;;4.55;3.25;;;6.20;99.90;;;;;;5028907;28;20039;-70
2021/03/06 11:18:43;;;;;;;5.03;4.10;;;6.20;99.90;;;;;;5022577;28;20397;-69
2021/03/06 11:21:13;;;;;;;5.40;3.30;;;6.30;99.90;;;;;;5017481;28;20545;-70
2021/03/06 11:23:40;;;;;;;3.35;3.05;;;6.50;99.90;;;;;;5017100;28;20030;-69
2021/03/06 11:26:06;;;;;;;4.10;3.67;;;6.50;99.90;;;;;;5015925;28;20029;-70
2021/03/06 11:28:32;;;;;;;3.38;3.05;;;6.60;99.90;;;;;;5018072;28;20038;-69
2021/03/06 11:31:00;;;;;;;3.72;3.40;;;6.50;99.90;;;;;;5014907;28;20036;-69
2021/03/06 11:33:26;;;;;;;4.18;2.95;;;6.40;99.90;;;;;;5015365;28;20025;-71
2021/03/06 11:35:52;;;;;;;3.78;3.40;;;6.40;99.90;;;;;;5015786;28;20025;-70
2021/03/06 11:38:19;;;;;;;3.85;3.20;;;6.40;99.90;;;;;;5019820;28;20026;-70
2021/03/06 11:40:48;;;;;;;3.38;2.92;;;6.50;99.90;;;;;;5020707;28;20433;-70
2021/03/06 11:43:15;;;;;;;3.95;3.30;;;6.50;99.90;;;;;;5023174;28;20037;-70
2021/03/06 11:45:41;;;;;;;3.60;3.13;;;6.70;99.90;;;;;;5018557;28;20025;-69
2021/03/06 11:48:07;;;;;;;3.90;3.60;;;6.70;99.90;;;;;;5019837;28;20030;-72
2021/03/06 11:50:36;;;;;;;4.43;3.60;;;6.90;99.90;;;;;;5019520;28;20042;-69
2021/03/06 11:53:02;;;;;;;3.30;2.75;;;7.00;99.90;;;;;;5018299;28;20065;-69
2021/03/06 11:55:28;;;;;;;2.97;2.58;;;7.10;99.90;;;;;;5017250;28;20436;-71
2021/03/06 11:57:53;;;;;;;4.18;2.95;;;7.20;99.90;;;;;;5020780;28;20038;-69
2021/03/06 12:00:22;;;;;;;4.18;2.63;;;7.20;99.90;;;;;;5020698;28;20378;-70
2021/03/06 12:02:49;;;;;;;2.72;2.35;;;7.30;98.00;;;;;;5019453;28;20100;-68
2021/03/06 12:05:14;;;;;;;3.15;2.83;;;7.20;92.50;;;;;;5018895;28;20478;-70
2021/03/06 12:07:42;;;;;;;3.33;3.10;;;7.20;87.50;;;;;;5019638;28;20029;-69
2021/03/06 12:10:10;;;;;;;3.88;2.88;;;7.10;85.90;;;;;;5018890;28;20026;-70
2021/03/06 12:12:36;;;;;;;4.05;3.20;;;7.30;88.40;;;;;;5018779;28;20501;-70
2021/03/06 12:15:03;;;;;;;5.75;3.15;;;7.10;85.10;;;;;;5019121;28;20091;-71
2021/03/06 12:17:29;;;;;;;3.35;2.42;;;7.10;74.90;;;;;;5020314;28;20026;-70
2021/03/06 12:19:56;;;;;;;4.53;3.00;;;7.20;79.30;;;;;;5020713;28;20037;-69
2021/03/06 12:22:22;;;;;;;4.50;2.85;;;7.30;63.50;;;;;;5020508;28;20026;-70
2021/03/06 12:24:48;;;;;;;3.15;2.45;;;7.30;54.80;;;;;;5021618;28;20105;-70
2021/03/06 12:27:14;;;;;;;3.58;2.38;;;7.30;52.30;;;;;;5019946;28;20062;-70
2021/03/06 12:29:40;;;;;;;3.05;2.70;;;7.40;48.10;;;;;;5018627;28;20022;-70
2021/03/06 12:32:07;;;;;;;5.03;2.55;;;7.50;48.30;;;;;;5020367;28;20033;-69
2021/03/06 12:34:32;;;;;;;3.42;2.95;;;7.50;45.30;;;;;;5003505;28;20057;-69
2021/03/06 12:36:58;;;;;;;3.72;2.30;;;7.50;41.70;;;;;;5021849;28;20022;-69
2021/03/06 12:39:24;;;;;;;6.07;2.83;;;7.40;39.40;;;;;;5023738;28;20058;-70
2021/03/06 12:41:50;;;;;;;2.47;2.22;;;7.40;38.10;;;;;;5024073;28;20026;-71
2021/03/06 12:44:16;;;;;;;5.28;2.50;;;7.40;36.60;;;;;;5022066;28;20377;-69
2021/03/06 12:46:42;;;;;;;2.17;1.90;;;7.50;34.40;;;;;;5020100;28;20088;-69
2021/03/06 12:49:07;;;;;;;2.30;1.90;;;7.60;32.80;;;;;;5016586;28;20029;-69
2021/03/06 12:51:33;;;;;;;2.63;2.20;;;7.70;29.00;;;;;;5017827;28;20022;-71
2021/03/06 12:53:59;;;;;;;3.75;2.08;;;7.80;25.60;;;;;;5016585;28;20144;-70
2021/03/06 12:56:25;;;;;;;3.15;2.60;;;7.70;24.30;;;;;;5023828;28;20029;-70
2021/03/06 12:58:51;;;;;;;2.53;2.20;;;7.60;23.40;;;;;;5024494;28;20030;-71
2021/03/06 13:01:17;;;;;;;3.15;2.72;;;7.60;24.50;;;;;;5023561;28;20053;-70
2021/03/06 13:03:42;;;;;;;5.15;2.60;;;7.70;24.60;;;;;;5023990;28;20030;-69
2021/03/06 13:06:08;;;;;;;4.00;2.72;;;7.80;24.20;;;;;;5024285;28;20409;-70